createdAt,value
2022-10-24T00:01:23.786Z,11.10
2022-10-24T00:03:51.323Z,11.30
2022-10-24T00:06:20.537Z,11.30
2022-10-24T00:08:51.523Z,11.30
2022-10-24T00:11:27.108Z,11.20
2022-10-24T00:13:57.503Z,11.20
2022-10-24T00:16:25.348Z,11.20
2022-10-24T00:18:53.417Z,11.20
2022-10-24T00:21:20.929Z,11.10
2022-10-24T00:23:48.033Z,11.20
2022-10-24T00:26:16.822Z,11.20
2022-10-24T00:28:44.299Z,11.10
2022-10-24T00:31:18.536Z,10.70
2022-10-24T00:33:46.969Z,10.80
2022-10-24T00:36:22.942Z,11.00
2022-10-24T00:38:52.079Z,10.60
2022-10-24T00:41:22.309Z,10.80
2022-10-24T00:43:49.746Z,10.70
2022-10-24T00:46:19.837Z,10.70
2022-10-24T00:48:55.153Z,10.70
2022-10-24T00:51:30.787Z,10.60
2022-10-24T00:54:04.592Z,10.90
2022-10-24T00:56:38.145Z,10.70
2022-10-24T00:59:08.823Z,10.70
2022-10-24T01:01:38.411Z,10.50
2022-10-24T01:04:07.309Z,10.50
2022-10-24T01:07:08.170Z,10.70
2022-10-24T01:10:15.275Z,10.50
2022-10-24T01:13:33.021Z,10.50
2022-10-24T01:16:14.625Z,10.50
2022-10-24T01:18:57.893Z,10.50
2022-10-24T01:22:02.679Z,10.40
2022-10-24T01:24:55.266Z,10.80
2022-10-24T01:27:52.039Z,10.60
2022-10-24T01:30:20.538Z,10.50
2022-10-24T01:33:06.188Z,10.60
2022-10-24T01:35:45.969Z,10.80
2022-10-24T01:38:49.200Z,10.40
2022-10-24T01:41:27.950Z,10.80
2022-10-24T01:44:25.999Z,10.50
2022-10-24T01:47:04.228Z,10.30
2022-10-24T01:49:37.714Z,10.50
2022-10-24T01:52:11.575Z,10.50
2022-10-24T01:54:41.650Z,10.40
2022-10-24T01:57:09.195Z,10.30
2022-10-24T01:59:50.470Z,10.30
2022-10-24T02:02:45.862Z,10.20
2022-10-24T02:05:29.372Z,10.20
2022-10-24T02:08:05.578Z,10.30
2022-10-24T02:10:40.815Z,10.30
2022-10-24T02:13:17.558Z,10.00
2022-10-24T02:15:52.342Z,10.20
2022-10-24T02:18:20.985Z,10.30
2022-10-24T02:21:05.875Z,10.30
2022-10-24T02:23:59.050Z,10.30
2022-10-24T02:26:49.883Z,10.20
2022-10-24T02:29:27.736Z,10.10
2022-10-24T02:31:58.648Z,10.20
2022-10-24T02:34:32.758Z,10.40
2022-10-24T02:37:01.575Z,10.30
2022-10-24T02:39:30.879Z,10.30
2022-10-24T02:42:00.150Z,10.40
2022-10-24T02:44:30.084Z,10.10
2022-10-24T02:47:01.758Z,10.20
2022-10-24T02:49:29.080Z,10.20
2022-10-24T02:51:56.851Z,10.50
2022-10-24T02:54:24.050Z,10.50
2022-10-24T02:56:58.661Z,10.30
2022-10-24T02:59:25.832Z,10.10
2022-10-24T03:01:53.181Z,10.20
2022-10-24T03:04:20.416Z,10.50
2022-10-24T03:06:48.143Z,10.10
2022-10-24T03:09:15.363Z,10.30
2022-10-24T03:11:42.837Z,10.20
2022-10-24T03:14:10.026Z,10.20
2022-10-24T03:16:37.123Z,10.40
2022-10-24T03:19:04.369Z,10.30
2022-10-24T03:21:31.627Z,10.20
2022-10-24T03:23:59.177Z,10.30
2022-10-24T03:26:26.380Z,10.50
2022-10-24T03:28:53.474Z,10.40
2022-10-24T03:31:20.821Z,10.20
2022-10-24T03:33:48.126Z,10.20
2022-10-24T03:36:15.399Z,10.30
2022-10-24T03:38:42.576Z,10.10
2022-10-24T03:41:09.784Z,10.10
2022-10-24T03:43:37.295Z,10.30
2022-10-24T03:46:04.610Z,10.00
2022-10-24T03:48:31.920Z,10.00
2022-10-24T03:50:59.194Z,10.40
2022-10-24T03:53:26.511Z,9.90
2022-10-24T03:55:53.767Z,10.00
2022-10-24T03:58:20.947Z,10.00
2022-10-24T04:00:48.074Z,10.00
2022-10-24T04:03:15.249Z,10.00
2022-10-24T04:05:42.388Z,10.00
2022-10-24T04:08:10.208Z,9.90
2022-10-24T04:10:37.271Z,10.00
2022-10-24T04:13:04.710Z,10.00
2022-10-24T04:15:32.054Z,10.10
2022-10-24T04:17:59.219Z,10.20
2022-10-24T04:20:26.678Z,10.20
2022-10-24T04:22:53.945Z,10.20
2022-10-24T04:25:20.973Z,10.20
2022-10-24T04:27:48.518Z,10.60
2022-10-24T04:30:16.908Z,10.60
2022-10-24T04:32:46.504Z,10.20
2022-10-24T04:35:14.391Z,10.20
2022-10-24T04:37:41.528Z,10.10
2022-10-24T04:40:10.833Z,10.40
2022-10-24T04:42:37.967Z,10.10
2022-10-24T04:45:06.340Z,10.10
2022-10-24T04:47:33.494Z,10.20
2022-10-24T04:50:00.629Z,9.80
2022-10-24T04:52:28.110Z,10.00
2022-10-24T04:54:55.412Z,10.00
2022-10-24T04:57:22.506Z,10.20
2022-10-24T04:59:49.693Z,10.30
2022-10-24T05:02:17.172Z,10.30
2022-10-24T05:04:44.405Z,9.90
2022-10-24T05:07:11.667Z,10.10
2022-10-24T05:09:38.979Z,10.30
2022-10-24T05:12:06.464Z,10.00
2022-10-24T05:14:33.694Z,10.20
2022-10-24T05:17:00.933Z,10.20
2022-10-24T05:19:28.009Z,10.20
2022-10-24T05:21:55.047Z,10.00
2022-10-24T05:24:22.605Z,10.30
2022-10-24T05:26:49.752Z,10.10
2022-10-24T05:29:16.886Z,10.10
2022-10-24T05:31:44.093Z,10.10
2022-10-24T05:34:11.403Z,10.20
2022-10-24T05:36:38.515Z,10.20
2022-10-24T05:39:05.576Z,10.00
2022-10-24T05:41:32.875Z,10.20
2022-10-24T05:44:00.272Z,10.10
2022-10-24T05:46:27.663Z,10.10
2022-10-24T05:48:54.850Z,10.40
2022-10-24T05:51:22.728Z,10.30
2022-10-24T05:53:49.956Z,10.20
2022-10-24T05:56:17.541Z,10.40
2022-10-24T05:58:44.606Z,10.20
2022-10-24T06:01:11.885Z,10.40
2022-10-24T06:03:39.681Z,10.30
2022-10-24T06:06:09.634Z,10.30
2022-10-24T06:08:38.467Z,10.40
2022-10-24T06:11:09.354Z,10.50
2022-10-24T06:13:37.151Z,10.50
2022-10-24T06:16:07.708Z,10.70
2022-10-24T06:18:36.408Z,10.70
2022-10-24T06:21:06.965Z,11.00
2022-10-24T06:23:34.906Z,11.10
2022-10-24T06:26:02.103Z,10.90
2022-10-24T06:28:29.218Z,11.40
2022-10-24T06:30:56.359Z,11.30
2022-10-24T06:33:23.481Z,11.50
2022-10-24T06:35:50.890Z,11.50
2022-10-24T06:38:18.065Z,11.60
2022-10-24T06:40:45.136Z,11.70
2022-10-24T06:43:12.269Z,12.10
2022-10-24T06:45:39.436Z,12.00
2022-10-24T06:48:07.271Z,11.70
2022-10-24T06:50:34.562Z,12.60
2022-10-24T06:53:01.692Z,12.50
2022-10-24T06:55:28.840Z,12.50
2022-10-24T06:57:55.901Z,12.90
2022-10-24T07:00:23.021Z,13.40
2022-10-24T07:02:50.263Z,13.20
2022-10-24T07:05:17.509Z,13.50
2022-10-24T07:07:45.474Z,13.70
2022-10-24T07:10:14.881Z,13.80
2022-10-24T07:12:43.796Z,14.30
2022-10-24T07:15:12.150Z,14.80
2022-10-24T07:17:45.298Z,14.50
2022-10-24T07:20:13.825Z,14.40
2022-10-24T07:22:42.744Z,14.60
2022-10-24T07:25:10.181Z,14.50
2022-10-24T07:27:37.961Z,14.40
2022-10-24T07:30:07.730Z,14.30
2022-10-24T07:32:35.344Z,14.30
2022-10-24T07:35:02.619Z,14.40
2022-10-24T07:37:29.973Z,14.50
2022-10-24T07:40:00.900Z,14.60
2022-10-24T07:42:28.501Z,14.60
2022-10-24T07:44:55.778Z,14.60
2022-10-24T07:47:22.875Z,14.70
2022-10-24T07:49:49.961Z,15.10
2022-10-24T07:52:17.091Z,15.20
2022-10-24T07:54:44.271Z,15.20
2022-10-24T07:57:11.296Z,15.60
2022-10-24T07:59:42.117Z,15.80
2022-10-24T08:02:13.559Z,16.00
2022-10-24T08:04:41.628Z,16.10
2022-10-24T08:07:13.650Z,16.70
2022-10-24T08:09:46.023Z,17.40
2022-10-24T08:12:13.487Z,17.90
2022-10-24T08:14:42.033Z,18.60
2022-10-24T08:17:10.915Z,19.10
2022-10-24T08:19:43.954Z,19.40
2022-10-24T08:22:12.780Z,19.90
2022-10-24T08:24:40.230Z,20.00
2022-10-24T08:27:07.282Z,20.70
2022-10-24T08:29:34.361Z,21.10
2022-10-24T08:32:01.545Z,21.90
2022-10-24T08:34:28.743Z,22.20
2022-10-24T08:36:55.824Z,22.40
2022-10-24T08:39:22.892Z,22.40
2022-10-24T08:41:59.544Z,22.70
2022-10-24T08:44:40.262Z,22.60
2022-10-24T08:47:46.528Z,22.70
2022-10-24T08:50:33.857Z,22.50
2022-10-24T08:53:28.248Z,22.20
2022-10-24T08:55:59.721Z,21.80
2022-10-24T08:58:41.106Z,22.10
2022-10-24T09:01:23.599Z,21.60
2022-10-24T09:03:57.476Z,22.00
2022-10-24T09:06:29.573Z,22.20
2022-10-24T09:09:02.631Z,22.60
2022-10-24T09:12:17.532Z,23.00
2022-10-24T09:14:50.900Z,23.90
2022-10-24T09:17:32.623Z,23.90
2022-10-24T09:20:19.026Z,24.00
2022-10-24T09:22:47.427Z,24.40
2022-10-24T09:25:25.771Z,24.40
2022-10-24T09:27:52.896Z,24.40
2022-10-24T09:30:30.159Z,24.10
2022-10-24T09:33:33.549Z,24.40
2022-10-24T09:36:05.218Z,24.40
2022-10-24T09:38:38.378Z,24.30
2022-10-24T09:41:26.724Z,24.50
2022-10-24T09:44:05.643Z,25.10
2022-10-24T09:46:45.313Z,24.90
2022-10-24T09:49:22.991Z,25.10
2022-10-24T09:52:18.947Z,25.30
2022-10-24T09:54:47.545Z,25.80
2022-10-24T09:57:18.069Z,25.90
2022-10-24T09:59:59.410Z,25.90
2022-10-24T10:02:30.292Z,26.20
2022-10-24T10:05:03.439Z,25.60
2022-10-24T10:07:38.509Z,25.00
2022-10-24T10:10:27.098Z,24.80
2022-10-24T10:13:05.530Z,24.50
2022-10-24T10:15:50.511Z,24.40
2022-10-24T10:18:20.465Z,24.70
2022-10-24T10:21:20.073Z,25.10
2022-10-24T10:23:55.222Z,25.30
2022-10-24T10:26:48.743Z,25.10
2022-10-24T10:29:19.189Z,25.50
2022-10-24T10:32:07.098Z,25.60
2022-10-24T10:34:46.917Z,25.70
2022-10-24T10:37:39.614Z,25.40
2022-10-24T10:40:29.283Z,25.20
2022-10-24T10:43:48.373Z,25.10
2022-10-24T10:46:30.432Z,25.20
2022-10-24T10:49:16.651Z,25.20
2022-10-24T10:52:06.446Z,25.10
2022-10-24T10:55:17.587Z,25.20
2022-10-24T10:58:15.655Z,24.50
2022-10-24T11:01:11.693Z,24.90
2022-10-24T11:04:07.511Z,24.50
2022-10-24T11:07:04.131Z,24.40
2022-10-24T11:09:49.518Z,24.10
2022-10-24T11:12:30.835Z,23.70
2022-10-24T11:15:29.792Z,23.60
2022-10-24T11:18:31.559Z,23.10
2022-10-24T11:21:09.855Z,23.00
2022-10-24T11:23:50.373Z,22.90
2022-10-24T11:26:37.056Z,22.20
2022-10-24T11:29:17.864Z,21.90
2022-10-24T11:31:54.165Z,22.00
2022-10-24T11:34:35.539Z,21.80
2022-10-24T11:37:28.281Z,21.70
2022-10-24T11:40:13.144Z,21.50
2022-10-24T11:43:13.428Z,21.30
2022-10-24T11:45:55.772Z,21.30
2022-10-24T11:48:45.324Z,21.00
2022-10-24T11:51:39.144Z,20.90
2022-10-24T11:54:19.074Z,21.10
2022-10-24T11:56:59.697Z,21.10
2022-10-24T11:59:28.190Z,20.70
2022-10-24T12:01:55.175Z,21.20
2022-10-24T12:04:34.293Z,20.90
2022-10-24T12:07:26.138Z,20.60
2022-10-24T12:10:12.272Z,20.80
2022-10-24T12:13:06.612Z,20.70
2022-10-24T12:16:25.373Z,20.60
2022-10-24T12:19:03.445Z,20.30
2022-10-24T12:21:45.589Z,20.10
2022-10-24T12:24:38.859Z,20.10
2022-10-24T12:27:21.674Z,19.70
2022-10-24T12:30:16.324Z,20.00
2022-10-24T12:32:55.776Z,19.60
2022-10-24T12:35:40.087Z,19.50
2022-10-24T12:38:29.009Z,19.80
2022-10-24T12:41:05.890Z,19.70
2022-10-24T12:43:36.045Z,19.50
2022-10-24T12:46:27.368Z,19.80
2022-10-24T12:48:57.169Z,19.70
2022-10-24T12:51:36.691Z,19.20
2022-10-24T12:54:12.989Z,19.10
2022-10-24T12:57:03.991Z,19.20
2022-10-24T12:59:59.263Z,19.20
2022-10-24T13:03:06.866Z,19.00
2022-10-24T13:05:49.873Z,19.40
2022-10-24T13:08:40.702Z,18.90
2022-10-24T13:11:37.299Z,18.90
2022-10-24T13:14:22.489Z,18.70
2022-10-24T13:17:13.729Z,19.00
2022-10-24T13:19:40.979Z,18.80
2022-10-24T13:22:29.974Z,18.60
2022-10-24T13:24:57.653Z,18.70
2022-10-24T13:27:30.850Z,19.10
2022-10-24T13:29:57.913Z,18.90
2022-10-24T13:32:34.132Z,18.70
2022-10-24T13:35:04.130Z,18.80
2022-10-24T13:37:46.527Z,18.60
2022-10-24T13:40:33.286Z,18.50
2022-10-24T13:43:14.286Z,18.60
2022-10-24T13:46:01.678Z,18.70
2022-10-24T13:48:34.255Z,18.40
2022-10-24T13:51:42.673Z,18.30
2022-10-24T13:54:22.207Z,18.80
2022-10-24T13:56:50.157Z,18.90
2022-10-24T13:59:34.464Z,18.60
2022-10-24T14:02:07.591Z,18.50
2022-10-24T14:04:36.473Z,18.70
2022-10-24T14:07:08.243Z,18.60
2022-10-24T14:09:44.244Z,18.70
2022-10-24T14:12:25.636Z,18.30
2022-10-24T14:14:54.037Z,18.50
2022-10-24T14:17:29.327Z,18.20
2022-10-24T14:19:59.289Z,18.40
2022-10-24T14:22:41.181Z,17.90
2022-10-24T14:25:36.177Z,18.40
2022-10-24T14:28:16.190Z,18.40
2022-10-24T14:30:55.688Z,18.30
2022-10-24T14:33:30.113Z,18.30
2022-10-24T14:36:01.971Z,17.90
2022-10-24T14:38:30.154Z,17.90
2022-10-24T14:41:08.286Z,17.80
2022-10-24T14:43:42.128Z,17.90
2022-10-24T14:46:37.678Z,18.20
2022-10-24T14:49:26.467Z,17.90
2022-10-24T14:52:02.417Z,17.80
2022-10-24T14:54:35.358Z,17.70
2022-10-24T14:57:09.235Z,18.10
2022-10-24T14:59:45.370Z,17.50
2022-10-24T15:02:20.704Z,17.60
2022-10-24T15:04:48.207Z,17.60
2022-10-24T15:07:36.554Z,17.70
2022-10-24T15:10:13.467Z,17.50
2022-10-24T15:12:42.500Z,17.60
2022-10-24T15:15:33.992Z,17.40
2022-10-24T15:18:23.991Z,17.40
2022-10-24T15:21:13.900Z,17.20
2022-10-24T15:23:53.789Z,17.20
2022-10-24T15:26:32.703Z,17.10
2022-10-24T15:29:02.774Z,17.40
2022-10-24T15:31:34.500Z,17.40
2022-10-24T15:34:01.652Z,17.20
2022-10-24T15:36:41.671Z,17.10
2022-10-24T15:39:15.164Z,16.90
2022-10-24T15:41:43.015Z,17.30
2022-10-24T15:44:18.703Z,17.30
2022-10-24T15:46:48.336Z,17.10
2022-10-24T15:49:16.230Z,17.20
2022-10-24T15:51:50.083Z,17.30
2022-10-24T15:54:22.775Z,17.10
2022-10-24T15:56:50.780Z,17.10
2022-10-24T15:59:19.993Z,17.20
2022-10-24T16:01:55.875Z,16.70
2022-10-24T16:04:24.095Z,16.90
2022-10-24T16:06:51.798Z,17.20
2022-10-24T16:09:23.628Z,16.60
2022-10-24T16:11:50.843Z,17.10
2022-10-24T16:14:21.109Z,16.90
2022-10-24T16:16:49.080Z,17.10
2022-10-24T16:19:16.391Z,16.80
2022-10-24T16:21:44.163Z,17.20
2022-10-24T16:24:13.009Z,16.60
2022-10-24T16:26:41.639Z,16.70
2022-10-24T16:29:08.797Z,17.00
2022-10-24T16:31:36.100Z,16.60
2022-10-24T16:34:03.429Z,16.40
2022-10-24T16:36:32.956Z,16.90
2022-10-24T16:39:00.251Z,16.60
2022-10-24T16:41:27.774Z,16.70
2022-10-24T16:43:57.842Z,16.60
2022-10-24T16:46:28.201Z,16.60
2022-10-24T16:48:56.287Z,16.30
2022-10-24T16:51:32.415Z,16.50
2022-10-24T16:54:02.404Z,16.60
2022-10-24T16:56:30.375Z,16.50
2022-10-24T16:58:58.230Z,16.40
2022-10-24T17:01:27.679Z,16.30
2022-10-24T17:03:55.714Z,16.90
2022-10-24T17:06:23.331Z,16.80
2022-10-24T17:08:51.645Z,16.90
2022-10-24T17:11:43.134Z,16.40
2022-10-24T17:14:06.338Z,15.80
2022-10-24T17:16:33.888Z,16.80
2022-10-24T17:19:17.464Z,16.30
2022-10-24T17:21:51.455Z,16.10
2022-10-24T17:24:22.999Z,16.40
2022-10-24T17:26:51.508Z,16.00
2022-10-24T17:29:33.408Z,15.70
2022-10-24T17:32:01.012Z,15.70
2022-10-24T17:34:29.667Z,15.70
2022-10-24T17:37:20.667Z,15.90
2022-10-24T17:40:13.843Z,16.10
2022-10-24T17:42:43.916Z,16.10
2022-10-24T17:45:20.184Z,16.30
2022-10-24T17:47:49.102Z,15.70
2022-10-24T17:50:18.919Z,16.00
2022-10-24T17:52:51.439Z,16.20
2022-10-24T17:58:13.449Z,15.70
2022-10-24T18:00:41.835Z,16.20
2022-10-24T18:03:09.998Z,16.30
2022-10-24T18:05:39.049Z,15.90
2022-10-24T18:08:10.373Z,15.90
2022-10-24T18:10:40.476Z,15.40
2022-10-24T18:13:09.880Z,16.20
2022-10-24T18:15:38.612Z,16.30
2022-10-24T18:18:07.606Z,15.60
2022-10-24T18:20:36.295Z,15.50
2022-10-24T18:23:04.896Z,15.70
2022-10-24T18:25:39.152Z,15.90
2022-10-24T18:28:07.222Z,15.50
2022-10-24T18:30:35.964Z,15.60
2022-10-24T18:33:11.457Z,16.20
2022-10-24T18:36:17.321Z,15.70
2022-10-24T18:39:02.471Z,15.80
2022-10-24T18:42:12.321Z,15.60
2022-10-24T18:44:50.970Z,15.60
2022-10-24T18:47:25.583Z,15.60
2022-10-24T18:49:58.184Z,15.50
2022-10-24T18:53:13.268Z,15.60
2022-10-24T18:55:49.575Z,15.70
2022-10-24T18:58:20.561Z,15.40
2022-10-24T19:01:03.540Z,15.50
2022-10-24T19:03:36.237Z,15.40
2022-10-24T19:06:35.202Z,15.50
2022-10-24T19:09:03.798Z,15.70
2022-10-24T19:11:38.904Z,15.70
2022-10-24T19:14:07.456Z,15.40
2022-10-24T19:16:36.296Z,15.60
2022-10-24T19:19:05.547Z,15.60
2022-10-24T19:21:34.263Z,15.70
2022-10-24T19:24:03.658Z,15.60
2022-10-24T19:26:32.945Z,15.60
2022-10-24T19:29:03.569Z,15.20
2022-10-24T19:31:34.147Z,15.60
2022-10-24T19:34:02.435Z,15.60
2022-10-24T19:36:31.448Z,15.40
2022-10-24T19:39:01.332Z,15.50
2022-10-24T19:41:29.275Z,15.40
2022-10-24T19:43:57.334Z,15.60
2022-10-24T19:46:24.874Z,15.50
2022-10-24T19:48:53.245Z,15.40
2022-10-24T19:51:21.378Z,15.50
2022-10-24T19:53:49.909Z,15.60
2022-10-24T19:56:25.311Z,15.50
2022-10-24T19:58:54.476Z,15.20
2022-10-24T20:01:25.634Z,15.40
2022-10-24T20:03:55.203Z,15.40
2022-10-24T20:06:24.448Z,15.60
2022-10-24T20:08:51.696Z,15.50
2022-10-24T20:11:20.874Z,15.30
2022-10-24T20:13:50.403Z,15.20
2022-10-24T20:16:18.662Z,15.40
2022-10-24T20:18:46.160Z,15.10
2022-10-24T20:21:18.022Z,15.20
2022-10-24T20:23:47.816Z,15.00
2022-10-24T20:26:20.739Z,14.60
2022-10-24T20:28:51.060Z,15.20
2022-10-24T20:31:34.509Z,15.40
2022-10-24T20:34:08.392Z,15.50
2022-10-24T20:36:38.587Z,15.20
2022-10-24T20:39:08.063Z,15.10
2022-10-24T20:41:36.844Z,15.40
2022-10-24T20:44:07.021Z,15.20
2022-10-24T20:46:35.168Z,15.20
2022-10-24T20:49:02.437Z,14.50
2022-10-24T20:51:29.531Z,14.30
2022-10-24T20:53:56.739Z,15.40
2022-10-24T20:56:26.858Z,14.90
2022-10-24T20:58:56.110Z,15.50
2022-10-24T21:01:27.461Z,14.50
2022-10-24T21:03:56.968Z,15.00
2022-10-24T21:06:27.795Z,15.50
2022-10-24T21:08:59.063Z,15.30
2022-10-24T21:11:29.189Z,14.80
2022-10-24T21:14:03.400Z,15.20
2022-10-24T21:16:31.991Z,15.10
2022-10-24T21:19:00.290Z,14.60
2022-10-24T21:21:28.197Z,15.40
2022-10-24T21:24:02.350Z,15.40
2022-10-24T21:26:34.429Z,14.50
2022-10-24T21:29:09.330Z,14.40
2022-10-24T21:31:50.520Z,15.40
2022-10-24T21:34:18.661Z,14.10
2022-10-24T21:36:45.885Z,14.20
2022-10-24T21:39:15.440Z,14.60
2022-10-24T21:41:43.130Z,14.60
2022-10-24T21:44:10.570Z,14.70
2022-10-24T21:46:37.762Z,14.60
2022-10-24T21:49:05.123Z,14.60
2022-10-24T21:51:36.178Z,14.40
2022-10-24T21:54:16.420Z,14.60
2022-10-24T21:56:45.727Z,14.50
2022-10-24T21:59:19.572Z,14.60
2022-10-24T22:01:48.660Z,14.60
2022-10-24T22:04:17.241Z,14.50
2022-10-24T22:06:45.265Z,14.60
2022-10-24T22:09:16.997Z,14.50
2022-10-24T22:11:44.790Z,14.50
2022-10-24T22:14:16.131Z,14.90
2022-10-24T22:16:43.898Z,14.30
2022-10-24T22:19:13.927Z,14.40
2022-10-24T22:21:47.850Z,14.60
2022-10-24T22:24:21.966Z,14.50
2022-10-24T22:26:51.083Z,14.50
2022-10-24T22:29:22.508Z,14.30
2022-10-24T22:31:51.995Z,14.50
2022-10-24T22:34:23.608Z,14.50
2022-10-24T22:37:16.070Z,14.60
2022-10-24T22:39:43.519Z,14.40
2022-10-24T22:42:14.694Z,14.30
2022-10-24T22:44:45.502Z,14.50
2022-10-24T22:47:27.255Z,14.60
2022-10-24T22:50:50.792Z,14.60
2022-10-24T22:53:27.617Z,14.40
2022-10-24T22:55:54.596Z,14.60
2022-10-24T22:58:22.382Z,14.60
2022-10-24T23:00:58.326Z,14.30
2022-10-24T23:03:52.534Z,14.20
2022-10-24T23:06:28.063Z,14.60
2022-10-24T23:08:55.552Z,14.70
2022-10-24T23:11:22.991Z,14.60
2022-10-24T23:13:50.613Z,14.50
2022-10-24T23:16:35.129Z,14.50
2022-10-24T23:19:17.650Z,14.50
2022-10-24T23:22:22.478Z,14.60
2022-10-24T23:24:51.364Z,14.40
2022-10-24T23:27:43.171Z,14.70
2022-10-24T23:30:23.436Z,14.30
2022-10-24T23:32:51.869Z,14.10
2022-10-24T23:35:21.446Z,14.60
2022-10-24T23:37:51.976Z,14.60
2022-10-24T23:40:36.770Z,14.30
2022-10-24T23:43:05.220Z,14.60
2022-10-24T23:45:49.936Z,14.50
2022-10-24T23:49:15.647Z,14.60
2022-10-24T23:52:01.520Z,14.70
2022-10-24T23:54:33.586Z,14.20
2022-10-24T23:57:01.554Z,14.60
2022-10-24T23:59:28.941Z,14.20
